Woodleaf, California
Current Conditions -  °F | °C
As of 6:40 PM on Friday 24 Oct 2014 (Local Time) from KGOO Reporting Station
Clear Clear  
Wind Chill: 63°   Ceiling: Unl
Heat Index: 63°   Visibility: 10mi
Dew Point: 43°   Wind: 0mph
Humidity: 48%   Direction: NA
Pressure: 29.96"   Gusts: NA
Location:  39.4476°N, 121.176°W
Report Text: KGOO 250140Z AUTO 00000KT 10SM CLR 17/06 A2996 RMK AO1
Loading
Personal Weather Stations






























Interactive Weather Map
Tropical Storm Tracking
New forecast layout! Learn more

10-Day Weather Forecast

Advertisements
Track Severe Weather on mobile